To NAV CANADA Home Page Login to a new session Search on AWWS site Feedback and Comments Disclaimer Vers la page française équivalente Tips FAQ What's new on the site To the Forecasts and Observations / NOTAM section To "File a Flight Plan" website Publications and other links Update of the User's profile FIC Telephone Numbers My Weather Data Folder Route Weather Data Regional Weather Data Local Weather Data To the Forecasts and Observations / NOTAM section
Request Generated 05/25/2017 at 01:15:37 UTC . Weather information available at that time is displayed.

METAR/TAF

TORONTO/BILLY BISHOP TORONTO CITY AIRPORT/ON    (show WxCam)

METAR CYTZ 250100Z AUTO 07015G22KT 9SM -RA OVC090 14/09 A2962 RMK
SLP032 DENSITY ALT 500FT=
SPECI CYTZ 250032Z AUTO 08017G24KT 9SM -RA OVC090 15/09 A2962 RMK
SLP031 DENSITY ALT 600FT=
SPECI CYTZ 250007Z AUTO 06017G25KT 9SM OVC090 17/09 A2961 RMK SLP029
DENSITY ALT 800FT=
METAR CYTZ 250000Z AUTO 06020G29KT 9SM -RA BKN090 BKN110 17/10 A2961
RMK SLP027 DENSITY ALT 900FT=
SPECI CYTZ 242352Z AUTO 06021G26KT 9SM -RA BKN090 BKN110 17/10 A2961
RMK SLP027 DENSITY ALT 900FT=
METAR CYTZ 242300Z AUTO 06017KT 9SM FEW130 18/10 A2961 RMK SLP028
DENSITY ALT 900FT=

TAF CYTZ 241938Z 2420/2520 06015KT P6SM BKN160
FM242300 07012KT P6SM BKN060 OVC120 TEMPO 2423/2502 P6SM -SHRA
OVC060
FM250600 07015KT P6SM -RA SCT015 OVC040 TEMPO 2506/2508 4SM -RA
BR OVC015
FM250800 07012KT 4SM -RA BR SCT006 BKN015 OVC030
FM251000 07015KT 2SM -RA BR BKN006 OVC015 PROB30 2510/2513 OVC004
FM251300 07015G25KT 2SM RA BR OVC004
BECMG 2516/2518 07018G28KT
RMK FCST BASED ON AUTO OBS. NXT FCST BY 250200Z=
Your time UTC time
Weather data provided by Environment Canada and NAV CANADA